Time;durP1;ratioP1;P1;durP2;ratioP2;P2;SDS_P1;SDS_P2;PMS_P1;PMS_P2;Temp;Humidity;BMP_temperature;BMP_pressure;BME280_temperature;BME280_humidity;BME280_pressure;Samples;Min_cycle;Max_cycle;Signal;HPM_P1;HPM_P2
2023/08/29 00:01:27;;;;;;;2.20;1.73;;;12.50;99.90;;;12.17;100.00;96651.31;4998623;28;20088;-40
2023/08/29 00:03:55;;;;;;;3.42;1.92;;;12.50;99.90;;;11.98;100.00;96622.41;4996495;28;20037;-40
2023/08/29 00:06:20;;;;;;;3.35;2.00;;;12.50;99.90;;;12.20;100.00;96652.94;4990938;28;20109;-40
2023/08/29 00:08:46;;;;;;;3.30;2.53;;;12.60;99.90;;;12.16;100.00;96640.81;4993809;28;20300;-40
2023/08/29 00:11:12;;;;;;;2.80;1.85;;;12.60;99.90;;;12.22;100.00;96646.63;4997893;28;20548;-40
2023/08/29 00:13:38;;;;;;;2.67;1.90;;;12.60;99.90;;;12.24;100.00;96646.56;4992109;28;20038;-40
2023/08/29 00:16:03;;;;;;;2.17;1.77;;;12.60;99.90;;;12.21;100.00;96639.63;4995190;28;20048;-40
2023/08/29 00:18:29;;;;;;;6.25;2.00;;;12.60;99.90;;;12.21;100.00;96646.72;4983873;28;20954;-40
2023/08/29 00:20:55;;;;;;;5.75;1.88;;;12.60;99.90;;;12.19;100.00;96643.31;4998742;28;20445;-40
2023/08/29 00:23:21;;;;;;;1.92;1.70;;;12.60;99.90;;;12.20;100.00;96637.94;4993621;28;20125;-40
2023/08/29 00:25:46;;;;;;;4.65;1.92;;;12.60;99.90;;;12.24;100.00;96643.91;4993984;28;20131;-40
2023/08/29 00:28:12;;;;;;;2.40;1.83;;;12.60;99.90;;;12.23;100.00;96639.53;4995779;28;20049;-41
2023/08/29 00:30:39;;;;;;;2.70;2.10;;;12.60;99.90;;;12.20;100.00;96629.13;4989054;28;20200;-41
2023/08/29 00:33:06;;;;;;;7.85;1.98;;;12.60;99.90;;;12.24;100.00;96638.63;4999502;28;20037;-39
2023/08/29 00:35:32;;;;;;;4.13;1.65;;;12.60;99.90;;;12.19;100.00;96628.28;4997456;28;20053;-40
2023/08/29 00:37:58;;;;;;;3.28;1.90;;;12.60;99.90;;;12.19;100.00;96632.72;4999443;28;20036;-40
2023/08/29 00:40:32;;;;;;;2.65;1.85;;;12.60;99.90;;;12.25;100.00;96642.97;4998693;28;20515;-40
2023/08/29 00:43:02;;;;;;;3.00;2.08;;;12.60;99.90;;;12.26;100.00;96642.03;4996243;28;20512;-40
2023/08/29 00:45:32;;;;;;;3.17;1.98;;;12.60;99.90;;;12.25;100.00;96650.88;4993321;28;20037;-39
2023/08/29 00:47:59;;;;;;;3.67;1.90;;;12.60;99.90;;;12.26;100.00;96652.59;4999490;28;20096;-40
2023/08/29 00:50:25;;;;;;;2.42;1.80;;;12.60;99.90;;;12.28;100.00;96661.31;4987047;28;20267;-40
2023/08/29 00:52:58;;;;;;;4.15;2.30;;;12.60;99.90;;;12.29;100.00;96660.38;4996206;28;20403;-40
2023/08/29 00:55:28;;;;;;;2.72;2.13;;;12.70;99.90;;;12.24;100.00;96649.19;4997629;28;20026;-40
2023/08/29 00:57:57;;;;;;;3.65;2.05;;;12.70;99.90;;;12.31;100.00;96655.84;5000151;28;20559;-40
2023/08/29 01:00:27;;;;;;;3.40;2.13;;;12.70;99.90;;;12.30;100.00;96653.28;4996645;28;20400;-40
2023/08/29 01:02:54;;;;;;;2.30;2.00;;;12.70;99.90;;;12.24;100.00;96635.97;4998751;28;20040;-40
2023/08/29 01:05:23;;;;;;;4.03;1.98;;;12.70;99.90;;;12.28;100.00;96653.38;4997164;28;20193;-39
2023/08/29 01:07:56;;;;;;;4.05;2.40;;;12.70;99.90;;;12.32;100.00;96659.34;4999084;28;20037;-39
2023/08/29 01:10:36;;;;;;;3.42;1.77;;;12.70;99.90;;;12.32;100.00;96651.41;5012501;28;20032;-39
2023/08/29 01:13:47;;;;;;;3.38;1.95;;;12.70;99.90;;;12.32;100.00;96654.06;5007503;28;20112;-40
2023/08/29 01:16:16;;;;;;;4.97;2.40;;;12.70;99.90;;;12.25;100.00;96640.31;4994749;28;20514;-39
2023/08/29 01:18:43;;;;;;;4.50;2.25;;;12.70;99.90;;;12.29;100.00;96641.88;4998903;28;20336;-39
2023/08/29 01:21:29;;;;;;;2.58;2.28;;;12.70;99.90;;;12.28;100.00;96648.06;4996976;28;20674;-40
2023/08/29 01:24:04;;;;;;;4.20;2.10;;;12.70;99.90;;;12.29;100.00;96655.09;4990434;28;20223;-41
2023/08/29 01:26:31;;;;;;;2.10;1.90;;;12.70;99.90;;;12.29;100.00;96646.28;4994243;28;20108;-40
2023/08/29 01:28:58;;;;;;;4.35;2.20;;;12.70;99.90;;;12.24;100.00;96638.63;5014859;28;20501;-41
2023/08/29 01:31:29;;;;;;;5.18;2.67;;;12.70;99.90;;;12.28;100.00;96640.16;4997305;28;20061;-39
2023/08/29 01:33:57;;;;;;;3.28;2.20;;;12.70;99.90;;;12.26;100.00;96647.31;4993138;28;20037;-40
2023/08/29 01:36:27;;;;;;;2.50;2.25;;;12.70;99.90;;;12.27;100.00;96654.28;4998064;28;20108;-39
2023/08/29 01:38:53;;;;;;;4.80;2.58;;;12.60;99.90;;;12.27;100.00;96656.09;4998256;28;20132;-39
2023/08/29 01:41:19;;;;;;;4.60;2.67;;;12.60;99.90;;;12.31;100.00;96649.69;4991973;28;20409;-39
2023/08/29 01:43:45;;;;;;;3.05;1.98;;;12.70;99.90;;;12.31;100.00;96649.69;4997486;28;20034;-39
2023/08/29 01:46:10;;;;;;;3.45;2.50;;;12.70;99.90;;;12.32;100.00;96643.47;4997893;28;20737;-41
2023/08/29 01:48:38;;;;;;;5.18;2.20;;;12.70;99.90;;;12.28;100.00;96642.78;4998340;28;20030;-40
2023/08/29 01:51:04;;;;;;;2.67;2.10;;;12.70;99.90;;;12.34;100.00;96641.59;5007503;28;20271;-40
2023/08/29 01:53:29;;;;;;;4.60;2.17;;;12.70;99.90;;;12.33;100.00;96634.63;4995324;28;20029;-40
2023/08/29 01:55:57;;;;;;;3.08;2.10;;;12.70;99.90;;;12.35;100.00;96641.50;4998379;28;20926;-40
2023/08/29 01:58:24;;;;;;;5.72;2.13;;;12.70;99.90;;;12.35;100.00;96636.22;4992096;28;20037;-40
2023/08/29 02:00:50;;;;;;;3.95;2.25;;;12.80;99.90;;;12.36;100.00;96643.22;4984533;28;20405;-40
2023/08/29 02:03:16;;;;;;;2.78;2.17;;;12.70;99.90;;;12.39;100.00;96643.03;4990293;28;20034;-41
2023/08/29 02:05:42;;;;;;;3.20;2.13;;;12.80;99.90;;;12.40;100.00;96639.47;4997333;28;20397;-39
2023/08/29 02:08:08;;;;;;;3.00;2.13;;;12.80;99.90;;;12.43;100.00;96634.94;5003528;28;20029;-41
2023/08/29 02:10:39;;;;;;;2.45;1.92;;;12.80;99.90;;;12.44;100.00;96637.50;5001092;28;20378;-40
2023/08/29 02:13:05;;;;;;;3.83;2.17;;;12.80;99.90;;;12.46;100.00;96632.97;4981314;28;20437;-40
2023/08/29 02:15:31;;;;;;;4.38;2.10;;;12.90;99.90;;;12.50;100.00;96634.50;4999934;28;20547;-39
2023/08/29 02:17:56;;;;;;;2.95;2.20;;;12.80;99.90;;;12.42;100.00;96607.66;4999899;28;20037;-40
2023/08/29 02:20:22;;;;;;;4.07;2.20;;;12.90;99.90;;;12.52;100.00;96616.75;4999648;28;20841;-40
2023/08/29 02:22:48;;;;;;;3.10;2.42;;;12.90;99.90;;;12.55;100.00;96618.38;4998045;28;20021;-40
2023/08/29 02:25:14;;;;;;;3.58;2.50;;;12.90;99.90;;;12.55;100.00;96621.03;5002429;28;20034;-40
2023/08/29 02:27:39;;;;;;;2.58;2.28;;;12.90;99.90;;;12.57;100.00;96619.13;5001133;28;20068;-40
2023/08/29 02:30:06;;;;;;;3.10;2.80;;;12.90;99.90;;;12.56;100.00;96620.06;5001669;28;20036;-40
2023/08/29 02:32:34;;;;;;;5.28;2.85;;;12.90;99.90;;;12.58;100.00;96612.91;4994381;28;20068;-40
2023/08/29 02:35:00;;;;;;;2.92;2.00;;;12.90;99.90;;;12.59;100.00;96607.50;5004848;28;20025;-39
2023/08/29 02:37:27;;;;;;;2.75;2.20;;;12.90;99.90;;;12.58;100.00;96613.75;4998436;28;20105;-40
2023/08/29 02:39:52;;;;;;;3.38;2.30;;;12.90;99.90;;;12.60;100.00;96618.97;5005807;28;20041;-41
2023/08/29 02:42:18;;;;;;;3.80;1.90;;;13.00;99.90;;;12.60;100.00;96614.53;5001131;28;20029;-40
2023/08/29 02:44:44;;;;;;;2.70;2.28;;;13.00;99.90;;;12.62;100.00;96613.59;5000031;28;20045;-40
2023/08/29 02:47:09;;;;;;;3.70;2.10;;;13.00;99.90;;;12.62;100.00;96611.78;4998183;28;20541;-40
2023/08/29 02:49:35;;;;;;;3.63;2.50;;;13.00;99.90;;;12.57;100.00;96595.34;4996162;28;20436;-41
2023/08/29 02:52:01;;;;;;;7.20;2.95;;;13.00;99.90;;;12.64;100.00;96603.78;4992218;28;20219;-41
2023/08/29 02:54:27;;;;;;;4.28;2.42;;;13.00;99.90;;;12.64;100.00;96601.97;4997584;28;20611;-40
2023/08/29 02:56:52;;;;;;;2.63;2.10;;;13.00;99.90;;;12.66;100.00;96604.53;5001439;28;20042;-40
2023/08/29 02:59:18;;;;;;;3.53;2.47;;;13.00;99.90;;;12.66;100.00;96604.53;4994647;28;20087;-39
2023/08/29 03:01:44;;;;;;;3.72;2.50;;;13.00;99.90;;;12.63;100.00;96594.97;4994606;28;20125;-40
2023/08/29 03:04:10;;;;;;;4.45;3.05;;;13.00;99.90;;;12.64;100.00;96601.97;5003296;28;20034;-40
2023/08/29 03:06:35;;;;;;;3.80;2.53;;;13.00;99.90;;;12.64;100.00;96604.63;4999385;28;20498;-40
2023/08/29 03:09:01;;;;;;;4.95;2.58;;;13.00;99.90;;;12.66;100.00;96600.09;4998787;28;20026;-39
2023/08/29 03:11:28;;;;;;;3.05;2.38;;;13.00;99.90;;;12.67;100.00;96611.50;4999601;28;20053;-40
2023/08/29 03:13:54;;;;;;;3.28;2.03;;;13.00;99.90;;;12.68;100.00;96606.13;5000084;28;20477;-40
2023/08/29 03:16:20;;;;;;;4.13;2.53;;;13.10;99.90;;;12.69;100.00;96607.00;5001436;28;20030;-39
2023/08/29 03:18:46;;;;;;;6.05;2.40;;;13.10;99.90;;;12.70;100.00;96601.59;4998633;28;20084;-40
2023/08/29 03:21:11;;;;;;;2.65;2.20;;;13.10;99.90;;;12.69;100.00;96599.91;4997988;28;20410;-39
2023/08/29 03:23:37;;;;;;;3.42;2.22;;;13.10;99.90;;;12.73;100.00;96590.84;4997436;28;20068;-40
2023/08/29 03:26:08;;;;;;;4.63;2.03;;;13.10;99.90;;;12.70;100.00;96590.19;5000243;28;20059;-40
2023/08/29 03:28:35;;;;;;;3.83;2.83;;;13.10;99.90;;;12.73;100.00;96595.28;4997807;28;20036;-39
2023/08/29 03:31:17;;;;;;;4.35;2.65;;;13.10;99.90;;;12.70;100.00;96584.88;5004773;28;20040;-40
2023/08/29 03:33:44;;;;;;;3.28;2.50;;;13.10;99.90;;;12.65;100.00;96576.38;4990065;28;20121;-40
2023/08/29 03:36:10;;;;;;;3.85;2.20;;;13.10;99.90;;;12.57;100.00;96559.16;5001509;28;20026;-40
2023/08/29 03:38:38;;;;;;;5.18;2.72;;;13.10;99.90;;;12.72;100.00;96573.28;4997413;28;20084;-40
2023/08/29 03:41:05;;;;;;;4.53;2.25;;;13.10;99.90;;;12.68;100.00;96577.03;4996244;28;20026;-40
2023/08/29 03:43:33;;;;;;;5.40;3.40;;;13.10;99.90;;;12.65;100.00;96564.00;4993745;28;20112;-40
2023/08/29 03:46:04;;;;;;;2.55;2.25;;;13.10;99.90;;;12.72;100.00;96586.53;4998473;28;20068;-39
2023/08/29 03:48:30;;;;;;;6.57;3.03;;;13.10;99.90;;;12.70;100.00;96579.59;5001719;28;20504;-39
2023/08/29 03:50:58;;;;;;;6.13;2.53;;;13.10;99.90;;;12.68;100.00;96582.31;5002674;28;20377;-40
2023/08/29 03:53:24;;;;;;;4.10;2.10;;;13.10;99.90;;;12.68;100.00;96581.47;4998609;28;20033;-39
2023/08/29 03:55:50;;;;;;;4.28;2.53;;;13.00;99.90;;;12.65;100.00;96579.88;4999320;28;20115;-40
2023/08/29 03:58:16;;;;;;;3.42;2.47;;;13.00;99.90;;;12.64;100.00;96580.81;5004614;28;20033;-40
2023/08/29 04:00:43;;;;;;;3.30;2.40;;;13.00;99.90;;;12.60;100.00;96574.00;5000034;28;20132;-40
2023/08/29 04:03:09;;;;;;;4.93;2.90;;;13.00;99.90;;;12.50;100.00;96559.59;5002781;28;20042;-40
2023/08/29 04:05:36;;;;;;;5.20;3.22;;;13.00;99.90;;;12.57;100.00;96569.72;5000132;28;20516;-40
2023/08/29 04:08:06;;;;;;;7.25;4.18;;;12.90;99.90;;;12.59;100.00;96577.56;5000537;28;20032;-40
2023/08/29 04:10:38;;;;;;;7.50;3.50;;;12.90;99.90;;;12.56;100.00;96572.47;5000820;28;20486;-40
2023/08/29 04:13:05;;;;;;;8.50;4.28;;;12.90;99.90;;;12.51;100.00;96569.25;5000954;28;20131;-39
2023/08/29 04:15:31;;;;;;;5.40;3.47;;;12.90;99.90;;;12.52;100.00;96568.28;5000740;28;20908;-41
2023/08/29 04:17:56;;;;;;;5.60;3.08;;;12.90;99.90;;;12.51;100.00;96566.59;5005831;28;20517;-40
2023/08/29 04:20:23;;;;;;;4.00;3.20;;;12.90;99.90;;;12.54;100.00;96577.88;5004820;28;20030;-39
2023/08/29 04:22:48;;;;;;;5.07;3.40;;;12.90;99.90;;;12.54;100.00;96585.78;5000954;28;20032;-40
2023/08/29 04:25:14;;;;;;;8.80;6.70;;;12.90;99.90;;;12.56;100.00;96575.09;4999051;28;20042;-39
2023/08/29 04:27:41;;;;;;;5.85;4.18;;;12.90;99.90;;;12.57;100.00;96582.09;4999215;28;20057;-40
2023/08/29 04:30:07;;;;;;;5.20;3.60;;;12.90;99.90;;;12.59;100.00;96577.56;5004267;28;20034;-39
2023/08/29 04:32:37;;;;;;;4.97;3.70;;;13.00;99.90;;;12.58;100.00;96574.09;5002934;28;20022;-39
2023/08/29 04:35:06;;;;;;;5.30;3.85;;;13.00;99.90;;;12.62;100.00;96579.22;4997726;28;20025;-42
2023/08/29 04:37:35;;;;;;;4.60;3.05;;;13.00;99.90;;;12.64;100.00;96580.81;4983928;28;20026;-39
2023/08/29 04:40:06;;;;;;;4.28;3.88;;;13.00;99.90;;;12.66;100.00;96576.28;5001455;28;20062;-40
2023/08/29 04:42:37;;;;;;;6.45;5.63;;;13.10;99.90;;;12.66;100.00;96578.94;5003195;28;20037;-40
2023/08/29 04:45:06;;;;;;;6.85;4.28;;;13.00;99.90;;;12.61;100.00;96575.69;5005060;28;20532;-39
2023/08/29 04:47:32;;;;;;;5.47;3.70;;;13.00;99.90;;;12.68;100.00;96581.47;4997478;28;20029;-39
2023/08/29 04:49:58;;;;;;;7.18;5.10;;;13.10;99.90;;;12.69;100.00;96583.19;5002657;28;20553;-39
2023/08/29 04:52:26;;;;;;;6.90;5.80;;;13.10;99.90;;;12.67;100.00;96574.47;4995903;28;20045;-40
2023/08/29 04:54:52;;;;;;;7.05;4.85;;;13.10;99.90;;;12.70;100.00;96579.59;4997846;28;20398;-39
2023/08/29 04:57:18;;;;;;;8.55;4.78;;;13.10;99.90;;;12.70;100.00;96574.31;4995223;28;20367;-40
2023/08/29 04:59:43;;;;;;;6.13;5.22;;;13.10;99.90;;;12.71;100.00;96576.03;4994992;28;20500;-39
2023/08/29 05:02:09;;;;;;;6.65;4.93;;;13.10;99.90;;;12.73;100.00;96572.34;4999656;28;20046;-39
2023/08/29 05:04:35;;;;;;;7.35;4.40;;;13.10;99.90;;;12.78;100.00;96578.22;5000946;28;20026;-39
2023/08/29 05:07:02;;;;;;;6.47;5.10;;;13.20;99.90;;;12.81;100.00;96571.88;4998999;28;20512;-40
2023/08/29 05:09:27;;;;;;;6.00;5.15;;;13.20;99.90;;;12.82;100.00;96570.94;5006366;28;20026;-41
2023/08/29 05:11:53;;;;;;;8.43;5.50;;;13.20;99.90;;;12.86;100.00;96568.97;4996857;28;20091;-40
2023/08/29 05:14:19;;;;;;;9.88;5.80;;;13.20;99.90;;;12.86;100.00;96569.81;5006204;28;20398;-39
2023/08/29 05:16:44;;;;;;;7.97;6.07;;;13.20;99.90;;;12.87;100.00;96573.31;4982327;28;20072;-39
2023/08/29 05:19:10;;;;;;;8.85;7.30;;;13.20;99.90;;;12.87;100.00;96578.63;4999186;28;20041;-41
2023/08/29 05:21:36;;;;;;;8.70;6.40;;;13.20;99.90;;;12.88;100.00;96573.22;4998462;28;20030;-40
2023/08/29 05:24:03;;;;;;;9.75;7.70;;;13.20;99.90;;;12.87;100.00;96575.97;5007901;28;20040;-41
2023/08/29 05:26:29;;;;;;;7.63;6.80;;;13.20;99.90;;;12.87;100.00;96575.97;5005843;28;20050;-39
2023/08/29 05:28:54;;;;;;;8.63;6.78;;;13.20;99.90;;;12.89;100.00;96572.28;4994232;28;20072;-39
2023/08/29 05:31:20;;;;;;;11.68;7.93;;;13.20;99.90;;;12.92;100.00;96574.75;5002842;28;20021;-39
2023/08/29 05:33:46;;;;;;;8.85;7.20;;;13.30;99.90;;;12.88;100.00;96570.56;5006045;28;20036;-40
2023/08/29 05:36:11;;;;;;;9.25;8.25;;;13.30;99.90;;;12.90;100.00;96578.41;4997664;28;20457;-39
2023/08/29 05:38:37;;;;;;;8.48;7.25;;;13.30;99.90;;;12.85;100.00;96572.53;5006458;28;20030;-40
2023/08/29 05:41:03;;;;;;;11.35;8.55;;;13.30;99.90;;;12.92;100.00;96576.53;5001946;28;20037;-40
2023/08/29 05:43:29;;;;;;;10.43;7.35;;;13.30;99.90;;;12.86;100.00;96571.63;5001847;28;20396;-40
2023/08/29 05:45:56;;;;;;;10.07;7.20;;;13.30;99.90;;;12.91;100.00;96567.75;4998761;28;20053;-40
2023/08/29 05:48:21;;;;;;;11.82;8.90;;;13.30;99.90;;;12.92;100.00;96582.69;5007285;28;20049;-40
2023/08/29 05:50:51;;;;;;;9.50;8.15;;;13.30;99.90;;;12.91;100.00;96580.13;4999159;28;20481;-40
2023/08/29 05:53:18;;;;;;;12.85;9.18;;;13.30;99.90;;;12.94;100.00;96587.91;5007106;28;20107;-40
2023/08/29 05:55:44;;;;;;;15.50;9.13;;;13.30;99.90;;;12.98;100.00;96584.97;4988308;28;20033;-41
2023/08/29 05:58:10;;;;;;;10.40;8.32;;;13.30;99.90;;;12.98;100.00;96579.66;4991192;28;20481;-40
2023/08/29 06:00:37;;;;;;;15.07;9.40;;;13.40;99.90;;;13.09;100.00;96588.78;4991483;28;20046;-40
2023/08/29 06:03:07;;;;;;;14.70;9.70;;;13.50;99.90;;;13.14;100.00;96589.34;4992273;28;20100;-39
2023/08/29 06:05:33;;;;;;;12.18;10.23;;;13.50;99.90;;;13.11;100.00;96578.94;4987576;28;20710;-42
2023/08/29 06:08:02;;;;;;;15.98;10.23;;;13.60;99.90;;;13.17;100.00;96584.72;4994536;28;20121;-39
2023/08/29 06:10:28;;;;;;;11.35;8.43;;;13.60;99.90;;;13.17;100.00;96587.38;5000845;28;20651;-40
2023/08/29 06:12:54;;;;;;;10.70;8.98;;;13.60;99.90;;;13.20;100.00;96591.63;4993650;28;20037;-40
2023/08/29 06:15:22;;;;;;;10.15;8.52;;;13.60;99.90;;;13.11;100.00;96590.38;4999645;28;20036;-41
2023/08/29 06:17:48;;;;;;;8.80;6.97;;;13.60;99.90;;;13.14;100.00;96611.38;5000557;28;20083;-40
2023/08/29 06:20:14;;;;;;;7.80;6.15;;;13.50;99.90;;;12.99;100.00;96580.50;5001767;28;20034;-40
2023/08/29 06:22:40;;;;;;;14.35;9.27;;;13.50;99.90;;;13.13;100.00;96604.34;4998171;28;20034;-40
2023/08/29 06:25:06;;;;;;;9.65;7.78;;;13.50;99.90;;;13.13;100.00;96601.72;5002491;28;20345;-40
2023/08/29 06:27:33;;;;;;;10.60;8.70;;;13.50;99.90;;;13.11;100.00;96606.25;4988959;28;20486;-40
2023/08/29 06:29:59;;;;;;;9.60;8.57;;;13.50;99.90;;;13.12;100.00;96605.31;5001695;28;20037;-39
2023/08/29 06:32:25;;;;;;;9.88;8.10;;;13.50;99.90;;;13.13;100.00;96614.94;5002578;28;20044;-40
2023/08/29 06:34:51;;;;;;;10.02;8.18;;;13.50;99.90;;;13.20;100.00;96625.19;4999601;28;20482;-40
2023/08/29 06:37:16;;;;;;;12.25;7.65;;;13.50;99.90;;;13.17;100.00;96627.09;4996771;28;20397;-41
2023/08/29 06:39:42;;;;;;;9.98;6.75;;;13.50;99.90;;;13.16;100.00;96619.22;4998919;28;20198;-39
2023/08/29 06:42:08;;;;;;;13.63;9.15;;;13.50;99.90;;;13.13;100.00;96628.19;5003074;28;20092;-40
2023/08/29 06:44:34;;;;;;;12.00;9.95;;;13.50;99.90;;;13.13;100.00;96630.00;4998421;28;20065;-41
2023/08/29 06:47:00;;;;;;;11.15;9.45;;;13.50;99.90;;;13.12;100.00;96639.72;4994814;28;20043;-39
2023/08/29 06:49:26;;;;;;;12.88;8.48;;;13.50;99.90;;;13.10;100.00;96635.47;4997028;28;21364;-40
2023/08/29 06:51:52;;;;;;;12.70;9.45;;;13.50;99.90;;;13.12;100.00;96638.88;4994719;28;20034;-42
2023/08/29 06:54:18;;;;;;;11.23;8.75;;;13.50;99.90;;;13.13;100.00;96635.28;4995360;28;20049;-41
2023/08/29 06:56:44;;;;;;;16.40;9.35;;;13.50;99.90;;;13.15;100.00;96641.34;4998983;28;20112;-41
2023/08/29 06:59:10;;;;;;;14.82;9.73;;;13.50;99.90;;;13.18;100.00;96639.34;4997384;28;20140;-39
2023/08/29 07:01:37;;;;;;;14.13;9.63;;;13.60;99.90;;;13.24;100.00;96634.66;4997551;28;20117;-41
2023/08/29 07:04:04;;;;;;;11.07;8.40;;;13.60;99.90;;;13.29;100.00;96641.38;4997402;28;20044;-41
2023/08/29 07:06:30;;;;;;;12.15;8.68;;;13.70;99.90;;;13.33;100.00;96648.25;4999119;28;20229;-40
2023/08/29 07:08:55;;;;;;;10.95;8.10;;;13.60;99.90;;;13.39;100.00;96651.44;4999065;28;21302;-40
2023/08/29 07:11:21;;;;;;;10.77;8.35;;;13.80;99.90;;;13.43;100.00;96645.88;4992215;28;20034;-39
2023/08/29 07:13:47;;;;;;;11.43;9.52;;;13.80;99.90;;;13.41;100.00;96646.91;5000534;28;20029;-40
2023/08/29 07:16:12;;;;;;;15.48;9.70;;;13.80;99.90;;;13.52;100.00;96657.72;4999586;28;20033;-41
2023/08/29 07:18:38;;;;;;;17.13;10.38;;;13.90;99.90;;;13.60;100.00;96655.44;4993858;28;20031;-39
2023/08/29 07:21:04;;;;;;;14.10;9.20;;;14.00;99.90;;;13.67;100.00;96656.75;4995861;28;20904;-41
2023/08/29 07:23:30;;;;;;;13.48;9.32;;;14.10;99.90;;;13.76;100.00;96644.75;4994420;28;20041;-40
2023/08/29 07:25:55;;;;;;;12.10;9.57;;;14.10;99.90;;;13.85;100.00;96654.78;4989296;28;20038;-40
2023/08/29 07:28:21;;;;;;;13.40;8.57;;;14.20;99.90;;;13.98;100.00;96654.00;4996505;28;20092;-40
2023/08/29 07:30:50;;;;;;;12.85;8.35;;;14.30;99.90;;;14.06;100.00;96667.66;4995524;28;20034;-42
2023/08/29 07:33:18;;;;;;;11.52;8.18;;;14.40;99.90;;;14.07;100.00;96672.88;4992920;28;20030;-40
2023/08/29 07:35:46;;;;;;;9.90;7.78;;;14.40;99.90;;;14.10;100.00;96669.16;5000118;28;20036;-39
2023/08/29 07:38:13;;;;;;;10.50;8.02;;;14.50;99.90;;;14.06;100.00;96672.97;4994229;28;20473;-41
2023/08/29 07:40:39;;;;;;;9.95;7.35;;;14.40;99.90;;;14.08;100.00;96671.06;4989906;28;20092;-40
2023/08/29 07:43:09;;;;;;;8.35;7.32;;;14.40;99.90;;;13.92;100.00;96657.91;4995918;28;20034;-40
2023/08/29 07:45:35;;;;;;;10.32;8.25;;;14.50;99.90;;;14.07;100.00;96677.31;4996411;28;20125;-40
2023/08/29 07:48:02;;;;;;;10.98;7.45;;;14.40;99.90;;;14.13;100.00;96685.72;4991599;28;20026;-40
2023/08/29 07:50:28;;;;;;;9.45;7.63;;;14.50;99.90;;;14.15;100.00;96682.97;4998947;28;20120;-40
2023/08/29 07:52:54;;;;;;;10.88;7.05;;;14.60;99.90;;;14.18;100.00;96680.16;4991674;28;20026;-41
2023/08/29 07:55:23;;;;;;;9.35;6.15;;;14.50;99.90;;;14.23;100.00;96690.44;4989319;28;23148;-41
2023/08/29 07:57:49;;;;;;;10.93;7.13;;;14.50;99.90;;;14.13;100.00;96684.88;4995280;28;20037;-40
2023/08/29 08:00:17;;;;;;;8.63;6.97;;;14.60;99.90;;;14.12;100.00;96693.78;4994757;28;20494;-40
2023/08/29 08:02:44;;;;;;;10.50;7.88;;;14.50;99.90;;;14.06;100.00;96688.88;4995170;28;20030;-43
2023/08/29 08:05:15;;;;;;;11.02;7.32;;;14.50;99.90;;;14.12;100.00;96692.00;4986560;28;20037;-41
2023/08/29 08:07:43;;;;;;;11.15;8.02;;;14.50;99.90;;;14.10;100.00;96690.38;4985447;28;20528;-40
2023/08/29 08:10:11;;;;;;;9.10;6.45;;;14.50;99.90;;;14.15;100.00;96698.03;4991459;28;20146;-40
2023/08/29 08:12:38;;;;;;;11.52;7.75;;;14.60;99.90;;;14.17;100.00;96685.53;4993153;28;20048;-39
2023/08/29 08:15:08;;;;;;;10.00;6.88;;;14.50;99.90;;;14.11;100.00;96671.72;4984682;28;20096;-40
2023/08/29 08:17:35;;;;;;;9.90;8.10;;;14.60;99.90;;;14.14;100.00;96683.94;5013225;28;20433;-40
2023/08/29 08:20:08;;;;;;;10.52;7.65;;;14.60;99.90;;;14.29;100.00;96690.91;4987860;28;20026;-39
2023/08/29 08:22:35;;;;;;;13.95;7.80;;;14.70;99.90;;;14.37;100.00;96692.22;4983484;28;20029;-38
2023/08/29 08:25:02;;;;;;;8.68;6.53;;;14.80;99.90;;;14.47;100.00;96696.84;4974967;28;20042;-39
2023/08/29 08:27:29;;;;;;;8.73;7.18;;;14.90;99.90;;;14.55;100.00;96693.69;4997904;28;20400;-39
2023/08/29 08:29:56;;;;;;;9.80;8.23;;;15.00;99.90;;;14.58;100.00;96701.50;4988683;28;20061;-40
2023/08/29 08:32:22;;;;;;;10.85;8.07;;;15.00;99.90;;;14.60;100.00;96696.09;4994364;28;20113;-41
2023/08/29 08:34:47;;;;;;;11.45;8.52;;;15.00;99.90;;;14.61;100.00;96696.00;4985681;28;20034;-38
2023/08/29 08:37:13;;;;;;;11.45;8.15;;;15.10;99.90;;;14.69;100.00;96699.00;4989949;28;20433;-40
2023/08/29 08:39:39;;;;;;;12.27;8.32;;;15.10;99.90;;;14.73;100.00;96706.78;4982947;28;20157;-40
2023/08/29 08:42:05;;;;;;;9.32;8.43;;;15.20;99.90;;;14.76;100.00;96703.94;4986670;28;20366;-41
2023/08/29 08:44:34;;;;;;;9.55;8.10;;;15.20;99.90;;;14.72;100.00;96707.75;4982571;28;20038;-40
2023/08/29 08:47:00;;;;;;;9.82;8.38;;;15.10;99.90;;;14.67;100.00;96714.19;4963991;28;21535;-40
2023/08/29 08:49:27;;;;;;;13.77;8.00;;;15.10;99.90;;;14.66;100.00;96709.84;4967266;28;20029;-40
2023/08/29 08:51:54;;;;;;;10.38;7.75;;;15.00;99.90;;;14.74;100.00;96700.53;4989225;28;20506;-42
2023/08/29 08:54:19;;;;;;;12.65;8.98;;;15.10;99.90;;;14.92;100.00;96712.59;4995141;28;20398;-41
2023/08/29 08:56:48;;;;;;;10.32;8.30;;;15.30;99.90;;;15.12;100.00;96713.94;4995036;28;20041;-41
2023/08/29 08:59:15;;;;;;;11.68;8.57;;;15.50;99.90;;;15.25;100.00;96706.88;4984868;28;20038;-40
2023/08/29 09:01:40;;;;;;;9.60;8.60;;;15.70;99.90;;;15.25;100.00;96687.41;4996399;28;20520;-42
2023/08/29 09:04:07;;;;;;;7.40;6.68;;;15.80;99.90;;;15.54;100.00;96705.84;5002079;28;20057;-41
2023/08/29 09:06:34;;;;;;;10.20;7.88;;;15.90;99.90;;;15.55;100.00;96718.19;4993066;28;20057;-40
2023/08/29 09:09:22;;;;;;;11.20;8.23;;;16.00;99.90;;;15.61;100.00;96702.69;4991821;28;20312;-42
2023/08/29 09:11:56;;;;;;;12.77;8.40;;;16.10;99.90;;;15.65;100.00;96696.19;4991352;28;20335;-41
2023/08/29 09:14:24;;;;;;;9.55;7.55;;;16.20;99.90;;;15.62;100.00;96707.03;4990127;28;20034;-40
2023/08/29 09:16:55;;;;;;;9.40;7.72;;;16.10;99.90;;;15.70;100.00;96717.13;4994968;28;20038;-41
2023/08/29 09:19:22;;;;;;;9.15;7.57;;;16.20;99.90;;;15.77;100.00;96717.59;4982536;28;20041;-41
2023/08/29 09:21:51;;;;;;;8.95;7.75;;;16.20;99.90;;;15.62;100.00;96706.19;4986704;28;20055;-41
2023/08/29 09:24:33;;;;;;;7.55;6.70;;;16.10;99.90;;;15.34;100.00;96718.66;4998056;28;20390;-41
2023/08/29 09:27:04;;;;;;;9.38;7.32;;;15.90;99.90;;;15.06;100.00;96707.22;4994869;28;20504;-41
2023/08/29 09:29:30;;;;;;;9.00;7.88;;;15.60;99.90;;;14.91;100.00;96718.84;4986625;28;20041;-41
2023/08/29 09:31:58;;;;;;;8.75;7.82;;;15.30;99.90;;;14.83;100.00;96716.69;4976884;28;20042;-41
2023/08/29 09:34:25;;;;;;;10.00;7.35;;;15.30;99.90;;;14.91;100.00;96712.69;4984860;28;20042;-41
2023/08/29 09:36:51;;;;;;;10.50;8.73;;;15.30;99.90;;;14.98;100.00;96717.50;4987188;28;20037;-41
2023/08/29 09:39:17;;;;;;;9.75;8.00;;;15.40;99.90;;;15.17;100.00;96725.09;4974431;28;21419;-41
2023/08/29 09:41:42;;;;;;;10.45;7.85;;;15.50;99.90;;;15.31;100.00;96724.19;4991846;28;20030;-41
2023/08/29 09:44:12;;;;;;;9.27;8.13;;;15.70;99.90;;;15.46;100.00;96724.97;4989010;28;20053;-41
2023/08/29 09:46:44;;;;;;;10.88;8.48;;;15.90;99.90;;;15.59;100.00;96728.47;4985229;28;20177;-40
2023/08/29 09:49:10;;;;;;;12.23;9.20;;;16.00;99.90;;;15.66;100.00;96727.13;4997540;28;20061;-40
2023/08/29 09:51:37;;;;;;;14.25;7.85;;;16.10;99.90;;;15.69;100.00;96728.72;4992206;28;20917;-41
2023/08/29 09:54:08;;;;;;;9.70;8.70;;;16.10;99.90;;;15.70;100.00;96725.09;4996519;28;20037;-41
2023/08/29 09:56:35;;;;;;;13.65;9.30;;;16.10;99.90;;;15.59;100.00;96715.19;4990575;28;20072;-39
2023/08/29 09:59:02;;;;;;;13.07;9.25;;;16.00;99.90;;;15.63;100.00;96732.66;4988525;28;20033;-40
2023/08/29 10:01:28;;;;;;;8.38;7.53;;;16.00;99.90;;;15.53;100.00;96726.25;4996272;28;20036;-41
2023/08/29 10:04:00;;;;;;;9.35;7.10;;;15.90;99.90;;;15.49;100.00;96726.56;4984169;28;20026;-41
2023/08/29 10:06:27;;;;;;;9.20;7.80;;;15.90;99.90;;;15.49;100.00;96732.75;5007888;28;20049;-41
2023/08/29 10:09:00;;;;;;;9.10;8.15;;;15.90;99.90;;;15.44;100.00;96709.13;4993777;28;20044;-41
2023/08/29 10:11:27;;;;;;;10.95;8.55;;;15.90;99.90;;;15.57;100.00;96724.25;4974613;28;20034;-41